Time;durP1;ratioP1;P1;durP2;ratioP2;P2;SDS_P1;SDS_P2;PMS_P1;PMS_P2;Temp;Humidity;BMP_temperature;BMP_pressure;BME280_temperature;BME280_humidity;BME280_pressure;Samples;Min_cycle;Max_cycle;Signal;HPM_P1;HPM_P2
2021/10/05 00:01:34;;;;;;;6.90;2.35;;;11.60;93.50;;;;;;5011158;28;20044;-54
2021/10/05 00:04:01;;;;;;;3.95;1.83;;;11.50;93.70;;;;;;5006566;28;20109;-53
2021/10/05 00:06:27;;;;;;;4.63;2.10;;;11.50;93.80;;;;;;5003660;28;20037;-54
2021/10/05 00:08:53;;;;;;;6.55;2.20;;;11.50;94.00;;;;;;5010626;28;20038;-53
2021/10/05 00:11:18;;;;;;;5.95;1.70;;;11.50;94.00;;;;;;5011396;28;20084;-53
2021/10/05 00:13:44;;;;;;;8.60;2.60;;;11.50;94.00;;;;;;5012661;28;20038;-53
2021/10/05 00:16:10;;;;;;;7.10;2.10;;;11.50;93.80;;;;;;5007931;28;20050;-52
2021/10/05 00:18:36;;;;;;;7.20;1.88;;;11.50;93.90;;;;;;5011492;28;20038;-53
2021/10/05 00:21:03;;;;;;;8.35;2.40;;;11.40;93.80;;;;;;5005997;28;20042;-54
2021/10/05 00:23:29;;;;;;;6.28;1.90;;;11.40;93.90;;;;;;5009600;28;20045;-52
2021/10/05 00:25:54;;;;;;;8.65;2.17;;;11.40;94.10;;;;;;5004994;28;20037;-53
2021/10/05 00:28:20;;;;;;;6.28;2.83;;;11.30;94.20;;;;;;5007537;28;20030;-53
2021/10/05 00:30:46;;;;;;;7.00;2.20;;;11.30;94.30;;;;;;5002986;28;20041;-53
2021/10/05 00:33:12;;;;;;;8.88;2.47;;;11.30;94.30;;;;;;5012631;28;20045;-53
2021/10/05 00:35:38;;;;;;;7.18;2.00;;;11.30;94.10;;;;;;4982676;28;20113;-53
2021/10/05 00:38:04;;;;;;;5.80;2.40;;;11.30;94.30;;;;;;4986302;28;20168;-53
2021/10/05 00:40:30;;;;;;;5.57;2.60;;;11.20;94.30;;;;;;4993385;28;20474;-53
2021/10/05 00:42:56;;;;;;;9.07;2.40;;;11.20;94.40;;;;;;5009514;28;20046;-53
2021/10/05 00:45:22;;;;;;;7.47;2.20;;;11.20;94.50;;;;;;5011122;28;20042;-53
2021/10/05 00:47:51;;;;;;;6.22;1.98;;;11.10;94.50;;;;;;5011033;28;20046;-56
2021/10/05 00:50:17;;;;;;;9.35;3.00;;;11.10;94.60;;;;;;5011331;28;20044;-53
2021/10/05 00:52:44;;;;;;;5.47;2.10;;;11.10;94.70;;;;;;5010560;28;20034;-53
2021/10/05 00:55:10;;;;;;;8.10;2.42;;;11.10;94.60;;;;;;5011051;28;20475;-55
2021/10/05 00:57:36;;;;;;;4.97;2.10;;;11.10;94.70;;;;;;5010917;28;20045;-55
2021/10/05 01:00:04;;;;;;;6.72;2.55;;;11.10;94.70;;;;;;5010685;28;20430;-55
2021/10/05 01:02:30;;;;;;;6.97;2.20;;;11.10;94.80;;;;;;5009952;28;20449;-54
2021/10/05 01:04:55;;;;;;;6.03;2.50;;;11.10;94.80;;;;;;5012939;28;20033;-55
2021/10/05 01:07:21;;;;;;;3.95;2.03;;;11.10;94.70;;;;;;5012218;28;20038;-55
2021/10/05 01:09:46;;;;;;;7.90;2.47;;;11.20;94.70;;;;;;5011219;28;20639;-53
2021/10/05 01:12:12;;;;;;;6.22;2.42;;;11.10;94.60;;;;;;5007476;28;20375;-54
2021/10/05 01:14:38;;;;;;;5.95;2.42;;;11.10;94.60;;;;;;5011320;28;20038;-55
2021/10/05 01:17:06;;;;;;;7.97;2.38;;;11.10;94.60;;;;;;5015677;28;20037;-52
2021/10/05 01:19:31;;;;;;;12.32;3.63;;;11.10;94.70;;;;;;5016252;28;20042;-53
2021/10/05 01:21:58;;;;;;;6.93;2.83;;;11.10;94.50;;;;;;5016171;28;20045;-53
2021/10/05 01:24:24;;;;;;;7.45;3.25;;;11.10;94.50;;;;;;4998490;28;20042;-55
2021/10/05 01:26:53;;;;;;;8.75;2.80;;;11.10;94.60;;;;;;5015108;28;20120;-55
2021/10/05 01:29:23;;;;;;;11.07;3.47;;;11.10;94.90;;;;;;5012793;28;20045;-51
2021/10/05 01:31:52;;;;;;;7.43;3.20;;;11.10;94.80;;;;;;5015039;28;20522;-54
2021/10/05 01:34:20;;;;;;;8.60;2.90;;;11.00;94.90;;;;;;5012898;28;20125;-52
2021/10/05 01:36:49;;;;;;;9.18;2.95;;;11.00;95.10;;;;;;5014260;28;20052;-51
2021/10/05 01:39:27;;;;;;;11.00;3.10;;;11.10;94.90;;;;;;5014966;28;20059;-54
2021/10/05 01:41:55;;;;;;;8.43;3.00;;;11.00;95.00;;;;;;5007383;28;20050;-53
2021/10/05 01:44:21;;;;;;;9.75;2.90;;;11.00;94.90;;;;;;5014960;28;20493;-53
2021/10/05 01:46:49;;;;;;;9.18;3.40;;;11.00;94.90;;;;;;5007613;28;20077;-50
2021/10/05 01:49:17;;;;;;;8.73;3.65;;;11.00;95.00;;;;;;5013929;28;20125;-54
2021/10/05 01:51:44;;;;;;;11.07;3.53;;;10.90;95.20;;;;;;4996282;28;20045;-51
2021/10/05 01:54:10;;;;;;;9.70;3.20;;;11.00;95.20;;;;;;4997135;28;20130;-53
2021/10/05 01:56:36;;;;;;;7.43;3.08;;;10.90;95.20;;;;;;5014343;28;20513;-52
2021/10/05 01:59:03;;;;;;;11.63;3.25;;;10.90;95.30;;;;;;5014011;28;20048;-53
2021/10/05 02:01:29;;;;;;;10.85;3.88;;;10.90;95.30;;;;;;5013032;28;20046;-51
2021/10/05 02:03:55;;;;;;;10.75;3.83;;;10.90;95.40;;;;;;5013265;28;20038;-53
2021/10/05 02:06:22;;;;;;;11.32;3.67;;;10.90;95.40;;;;;;4996404;28;20509;-53
2021/10/05 02:08:48;;;;;;;8.93;3.67;;;10.90;95.60;;;;;;5006341;28;20054;-51
2021/10/05 02:11:13;;;;;;;9.40;3.60;;;10.80;95.70;;;;;;5006598;28;20398;-53
2021/10/05 02:13:41;;;;;;;8.95;3.83;;;10.80;95.90;;;;;;4994746;28;20038;-56
2021/10/05 02:16:07;;;;;;;8.40;3.83;;;10.80;95.90;;;;;;5009383;28;20125;-53
2021/10/05 02:18:33;;;;;;;8.93;3.80;;;10.80;95.90;;;;;;5008542;28;20084;-53
2021/10/05 02:20:58;;;;;;;10.05;3.85;;;10.80;96.00;;;;;;4989555;28;20045;-52
2021/10/05 02:23:25;;;;;;;9.38;4.07;;;10.80;96.00;;;;;;5009270;28;20560;-53
2021/10/05 02:25:50;;;;;;;9.23;4.15;;;10.80;96.00;;;;;;5007689;28;20038;-53
2021/10/05 02:28:16;;;;;;;6.10;3.80;;;10.70;96.20;;;;;;5005634;28;20553;-53
2021/10/05 02:30:42;;;;;;;11.02;4.45;;;10.70;96.20;;;;;;5004685;28;20026;-55
2021/10/05 02:33:08;;;;;;;15.35;4.47;;;10.70;96.20;;;;;;5005961;28;20037;-54
2021/10/05 02:35:33;;;;;;;11.35;4.20;;;10.60;96.30;;;;;;5012221;28;20042;-53
2021/10/05 02:37:59;;;;;;;9.63;4.25;;;10.70;96.50;;;;;;5008214;28;20044;-53
2021/10/05 02:40:24;;;;;;;13.13;4.90;;;10.70;96.50;;;;;;5008947;28;20038;-52
2021/10/05 02:42:50;;;;;;;9.27;4.20;;;10.60;96.60;;;;;;4994213;28;20046;-55
2021/10/05 02:45:15;;;;;;;10.02;4.75;;;10.60;96.70;;;;;;4996740;28;20533;-53
2021/10/05 02:47:41;;;;;;;10.50;5.10;;;10.60;96.90;;;;;;5006638;28;20445;-55
2021/10/05 02:50:07;;;;;;;12.20;4.95;;;10.50;96.90;;;;;;4992336;28;20034;-52
2021/10/05 02:52:33;;;;;;;11.48;5.22;;;10.50;97.10;;;;;;5004563;28;20425;-51
2021/10/05 02:54:58;;;;;;;12.65;5.07;;;10.50;97.30;;;;;;5008277;28;20050;-56
2021/10/05 02:57:24;;;;;;;11.20;5.18;;;10.50;97.30;;;;;;5012662;28;20038;-53
2021/10/05 02:59:50;;;;;;;9.35;5.07;;;10.50;97.40;;;;;;5007562;28;20040;-52
2021/10/05 03:02:16;;;;;;;8.13;4.85;;;10.50;97.40;;;;;;5012868;28;20059;-52
2021/10/05 03:04:42;;;;;;;7.68;4.70;;;10.50;97.40;;;;;;5012614;28;20040;-52
2021/10/05 03:07:07;;;;;;;11.55;4.95;;;10.40;97.50;;;;;;5013877;28;20033;-55
2021/10/05 03:09:34;;;;;;;9.13;5.43;;;10.50;97.50;;;;;;5012683;28;20060;-56
2021/10/05 03:12:01;;;;;;;12.13;5.95;;;10.50;97.60;;;;;;5012779;28;20037;-55
2021/10/05 03:14:26;;;;;;;7.60;4.70;;;10.50;97.70;;;;;;5012501;28;20073;-55
2021/10/05 03:16:52;;;;;;;10.82;5.57;;;10.50;97.50;;;;;;5011874;28;20069;-55
2021/10/05 03:19:22;;;;;;;9.20;4.88;;;10.50;97.60;;;;;;5009775;28;20120;-55
2021/10/05 03:21:53;;;;;;;10.27;5.38;;;10.50;97.70;;;;;;5036272;22;20073;-54
2021/10/05 03:24:18;;;;;;;9.27;5.28;;;10.50;97.70;;;;;;5010050;28;20508;-50
2021/10/05 03:26:44;;;;;;;11.18;5.90;;;10.60;97.70;;;;;;5008502;28;20058;-51
2021/10/05 03:29:10;;;;;;;12.23;5.72;;;10.60;97.70;;;;;;5012361;28;20099;-54
2021/10/05 03:31:36;;;;;;;9.88;5.30;;;10.50;97.80;;;;;;5008516;28;20050;-53
2021/10/05 03:34:02;;;;;;;11.63;5.85;;;10.50;97.90;;;;;;4990573;28;20409;-54
2021/10/05 03:36:27;;;;;;;10.57;5.68;;;10.50;98.00;;;;;;4992662;28;20030;-51
2021/10/05 03:38:53;;;;;;;8.48;5.60;;;10.50;98.10;;;;;;4990442;28;20042;-54
2021/10/05 03:41:18;;;;;;;12.45;6.43;;;10.40;98.20;;;;;;4990906;28;20113;-53
2021/10/05 03:43:44;;;;;;;9.82;5.43;;;10.40;98.40;;;;;;4986480;28;20117;-53
2021/10/05 03:46:09;;;;;;;15.23;5.82;;;10.50;98.50;;;;;;4992494;28;20065;-52
2021/10/05 03:48:35;;;;;;;11.57;6.65;;;10.50;98.50;;;;;;4991167;28;20074;-52
2021/10/05 03:51:01;;;;;;;9.45;5.97;;;10.40;98.50;;;;;;4991751;28;20530;-52
2021/10/05 03:53:26;;;;;;;14.43;6.15;;;10.40;98.70;;;;;;4992352;28;20077;-54
2021/10/05 03:55:55;;;;;;;12.90;6.40;;;10.40;98.80;;;;;;4984989;28;20026;-55
2021/10/05 03:58:23;;;;;;;9.93;6.03;;;10.40;98.80;;;;;;4991474;28;20042;-52
2021/10/05 04:00:49;;;;;;;11.57;6.53;;;10.40;98.90;;;;;;4986462;28;20039;-53
2021/10/05 04:03:15;;;;;;;11.90;6.63;;;10.40;98.90;;;;;;4991787;28;20033;-50
2021/10/05 04:05:41;;;;;;;10.40;6.40;;;10.40;98.90;;;;;;4992288;28;20039;-54
2021/10/05 04:08:09;;;;;;;11.88;6.28;;;10.40;99.00;;;;;;4992012;28;20026;-54
2021/10/05 04:10:35;;;;;;;8.73;6.63;;;10.40;99.20;;;;;;4985503;28;20041;-53
2021/10/05 04:13:01;;;;;;;10.82;6.50;;;10.40;99.10;;;;;;4986422;28;20039;-53
2021/10/05 04:15:26;;;;;;;13.75;6.05;;;10.40;99.20;;;;;;4991647;28;20045;-54
2021/10/05 04:17:52;;;;;;;9.90;6.53;;;10.50;99.20;;;;;;4983741;28;20070;-54
2021/10/05 04:20:17;;;;;;;11.00;6.55;;;10.50;99.10;;;;;;4990126;28;20118;-55
2021/10/05 04:22:43;;;;;;;12.13;6.95;;;10.50;99.00;;;;;;4991350;28;20100;-56
2021/10/05 04:25:09;;;;;;;10.80;6.45;;;10.50;99.10;;;;;;4991973;28;20038;-56
2021/10/05 04:27:37;;;;;;;13.98;6.50;;;10.50;99.10;;;;;;4991860;28;20113;-53
2021/10/05 04:30:05;;;;;;;15.52;6.47;;;10.50;99.30;;;;;;4986396;28;20061;-53
2021/10/05 04:32:30;;;;;;;11.38;6.70;;;10.50;99.10;;;;;;4990437;28;20046;-53
2021/10/05 04:34:56;;;;;;;9.70;6.82;;;10.40;99.20;;;;;;4983407;28;20400;-54
2021/10/05 04:37:21;;;;;;;11.73;6.85;;;10.50;99.40;;;;;;4987549;28;20554;-54
2021/10/05 04:39:47;;;;;;;10.70;6.70;;;10.40;99.30;;;;;;4989669;28;20532;-51
2021/10/05 04:42:12;;;;;;;14.05;6.47;;;10.40;99.50;;;;;;4989234;28;20379;-51
2021/10/05 04:44:38;;;;;;;9.15;6.32;;;10.50;99.30;;;;;;4991258;28;20026;-52
2021/10/05 04:47:04;;;;;;;12.98;6.68;;;10.50;99.40;;;;;;4986902;28;20093;-51
2021/10/05 04:49:29;;;;;;;12.10;6.35;;;10.50;99.30;;;;;;4988300;28;20038;-55
2021/10/05 04:51:55;;;;;;;10.07;6.75;;;10.50;99.10;;;;;;4993144;28;20046;-54
2021/10/05 04:54:21;;;;;;;9.68;6.40;;;10.40;99.30;;;;;;4995333;28;20406;-55
2021/10/05 04:56:46;;;;;;;11.77;6.82;;;10.40;99.50;;;;;;4994126;28;20035;-54
2021/10/05 04:59:12;;;;;;;11.55;7.18;;;10.40;99.40;;;;;;4993339;28;20093;-54
2021/10/05 05:01:37;;;;;;;10.57;6.10;;;10.40;99.60;;;;;;4994176;28;20089;-55
2021/10/05 05:04:03;;;;;;;13.20;6.60;;;10.40;99.60;;;;;;4993824;28;20108;-51
2021/10/05 05:06:29;;;;;;;12.50;6.78;;;10.40;99.50;;;;;;4994746;28;20030;-52
2021/10/05 05:08:54;;;;;;;10.30;6.45;;;10.30;99.50;;;;;;4993363;28;20162;-55
2021/10/05 05:11:22;;;;;;;10.38;6.85;;;10.40;99.70;;;;;;4995019;28;20073;-54
2021/10/05 05:13:48;;;;;;;13.07;7.40;;;10.40;99.50;;;;;;4988867;28;20054;-56
2021/10/05 05:16:13;;;;;;;17.13;6.45;;;10.40;99.60;;;;;;4992583;28;20045;-54
2021/10/05 05:18:39;;;;;;;11.40;6.60;;;10.30;99.70;;;;;;4994411;28;20042;-57
2021/10/05 05:21:05;;;;;;;13.52;6.95;;;10.30;99.80;;;;;;4995022;28;20034;-53
2021/10/05 05:23:30;;;;;;;13.30;6.93;;;10.30;99.80;;;;;;4994370;28;20510;-54
2021/10/05 05:25:56;;;;;;;12.30;6.65;;;10.40;99.60;;;;;;4995047;28;20379;-53
2021/10/05 05:28:21;;;;;;;11.05;7.32;;;10.40;99.60;;;;;;4994437;28;20121;-54
2021/10/05 05:30:47;;;;;;;9.98;6.43;;;10.40;99.60;;;;;;4991880;28;20049;-54
2021/10/05 05:33:13;;;;;;;10.80;6.68;;;10.40;99.70;;;;;;4993873;28;20034;-56
2021/10/05 05:35:38;;;;;;;9.88;6.82;;;10.30;99.70;;;;;;4994251;28;20034;-53
2021/10/05 05:38:04;;;;;;;11.05;6.32;;;10.30;99.80;;;;;;4993671;28;20040;-55
2021/10/05 05:40:29;;;;;;;10.82;6.60;;;10.30;99.90;;;;;;4992176;28;20108;-52
2021/10/05 05:42:55;;;;;;;10.52;6.82;;;10.30;99.70;;;;;;4993246;28;20042;-56
2021/10/05 05:45:21;;;;;;;14.02;6.80;;;10.30;99.90;;;;;;4991529;28;20050;-55
2021/10/05 05:47:46;;;;;;;10.43;6.95;;;10.30;99.80;;;;;;4992157;28;20093;-52
2021/10/05 05:50:12;;;;;;;10.43;6.40;;;10.30;99.90;;;;;;4994365;28;20034;-54
2021/10/05 05:52:38;;;;;;;11.65;6.70;;;10.20;99.90;;;;;;4994266;28;20437;-56
2021/10/05 05:55:04;;;;;;;9.95;6.40;;;10.30;99.90;;;;;;4994587;28;20046;-54
2021/10/05 05:57:29;;;;;;;11.55;6.63;;;10.30;99.90;;;;;;4993622;28;20042;-52
2021/10/05 05:59:55;;;;;;;9.90;5.85;;;10.30;99.90;;;;;;4994634;28;20051;-51
2021/10/05 06:02:20;;;;;;;9.88;6.03;;;10.30;99.90;;;;;;4986120;28;20133;-53
2021/10/05 06:04:46;;;;;;;8.98;5.95;;;10.30;99.90;;;;;;4994319;28;20042;-54
2021/10/05 06:07:12;;;;;;;11.40;6.40;;;10.40;99.80;;;;;;4994196;28;20031;-55
2021/10/05 06:09:38;;;;;;;12.20;6.80;;;10.40;99.90;;;;;;4994312;28;20043;-54
2021/10/05 06:12:07;;;;;;;11.30;6.47;;;10.30;99.90;;;;;;4986984;28;20479;-51
2021/10/05 06:14:33;;;;;;;10.20;6.40;;;10.30;99.90;;;;;;4989210;28;20165;-54
2021/10/05 06:17:01;;;;;;;8.65;6.15;;;10.30;99.90;;;;;;4989839;28;20184;-54
2021/10/05 06:19:27;;;;;;;9.18;6.10;;;10.30;99.90;;;;;;4985228;28;20042;-54
2021/10/05 06:21:53;;;;;;;7.57;5.97;;;10.30;99.90;;;;;;4986540;28;20038;-57
2021/10/05 06:24:19;;;;;;;9.35;5.93;;;10.30;99.90;;;;;;4985651;28;20454;-54
2021/10/05 06:26:45;;;;;;;8.57;6.00;;;10.30;99.90;;;;;;4986618;28;20059;-55
2021/10/05 06:29:10;;;;;;;10.48;6.10;;;10.40;99.90;;;;;;4989765;28;20038;-54
2021/10/05 06:31:36;;;;;;;12.75;6.70;;;10.40;99.90;;;;;;4988906;28;20505;-51
2021/10/05 06:34:02;;;;;;;11.38;6.68;;;10.40;99.90;;;;;;4990201;28;20042;-52
2021/10/05 06:36:28;;;;;;;8.30;5.75;;;10.40;99.90;;;;;;4989171;28;20074;-52
2021/10/05 06:38:53;;;;;;;11.20;5.90;;;10.40;99.90;;;;;;4993153;28;20121;-54
2021/10/05 06:41:19;;;;;;;9.48;5.50;;;10.30;99.90;;;;;;4993177;28;20034;-57
2021/10/05 06:43:44;;;;;;;8.38;5.90;;;10.40;99.90;;;;;;4991700;28;20096;-52
2021/10/05 06:46:10;;;;;;;9.45;5.60;;;10.40;99.90;;;;;;4987093;28;20034;-55
2021/10/05 06:48:35;;;;;;;9.43;5.38;;;10.40;99.90;;;;;;4972536;28;20052;-57
2021/10/05 06:51:01;;;;;;;8.68;5.47;;;10.50;99.90;;;;;;4969475;28;20044;-55
2021/10/05 06:53:27;;;;;;;8.57;5.38;;;10.50;99.90;;;;;;4980083;28;20080;-51
2021/10/05 06:55:53;;;;;;;8.77;5.40;;;10.50;99.90;;;;;;4979455;28;20043;-51
2021/10/05 06:58:19;;;;;;;9.85;5.63;;;10.50;99.90;;;;;;4989520;28;20097;-54
2021/10/05 07:00:45;;;;;;;8.20;5.75;;;10.60;99.90;;;;;;4982318;28;20046;-53
2021/10/05 07:03:10;;;;;;;8.02;5.57;;;10.60;99.90;;;;;;4982272;28;20046;-54
2021/10/05 07:05:36;;;;;;;8.80;5.60;;;10.70;99.90;;;;;;4976893;28;20031;-52
2021/10/05 07:08:07;;;;;;;9.25;5.70;;;10.70;99.90;;;;;;4982713;28;20578;-55
2021/10/05 07:10:34;;;;;;;10.82;5.60;;;10.70;99.90;;;;;;4982170;28;20404;-55
2021/10/05 07:12:59;;;;;;;10.00;5.38;;;10.80;99.90;;;;;;4982466;28;20413;-55
2021/10/05 07:15:25;;;;;;;9.75;5.05;;;11.00;99.80;;;;;;4984399;28;20034;-54
2021/10/05 07:17:52;;;;;;;9.32;5.35;;;11.00;99.80;;;;;;4976260;28;20061;-55
2021/10/05 07:20:18;;;;;;;6.93;4.30;;;11.10;99.70;;;;;;4984190;28;20093;-56
2021/10/05 07:22:43;;;;;;;7.40;4.80;;;11.20;99.30;;;;;;4983832;28;20042;-55
2021/10/05 07:25:09;;;;;;;9.70;4.90;;;11.40;99.20;;;;;;4979227;28;20080;-54
2021/10/05 07:27:36;;;;;;;9.32;4.78;;;11.40;99.00;;;;;;4979313;28;20030;-53
2021/10/05 07:30:03;;;;;;;7.85;4.78;;;11.50;98.70;;;;;;4983634;28;20098;-54
2021/10/05 07:32:29;;;;;;;7.80;4.53;;;11.60;98.60;;;;;;4978777;28;20065;-56
2021/10/05 07:34:55;;;;;;;6.68;4.82;;;11.70;98.20;;;;;;4978054;28;20448;-53
2021/10/05 07:37:20;;;;;;;5.95;4.25;;;11.70;98.20;;;;;;4978356;28;20034;-56
2021/10/05 07:39:46;;;;;;;6.78;4.43;;;11.70;97.80;;;;;;4978072;28;20122;-52
2021/10/05 07:42:13;;;;;;;6.90;4.22;;;11.80;97.70;;;;;;4980564;28;20038;-55
2021/10/05 07:44:39;;;;;;;9.82;4.68;;;11.80;97.50;;;;;;4982988;28;20070;-56
2021/10/05 07:47:05;;;;;;;5.43;4.03;;;11.80;97.80;;;;;;4976985;28;20038;-55
2021/10/05 07:49:33;;;;;;;9.35;4.82;;;11.90;97.40;;;;;;4980212;28;20035;-56
2021/10/05 07:51:59;;;;;;;7.28;4.47;;;11.90;97.10;;;;;;4977472;28;20515;-55
2021/10/05 07:54:25;;;;;;;7.38;4.28;;;11.90;97.20;;;;;;4979126;28;20077;-51
2021/10/05 07:56:50;;;;;;;6.53;4.57;;;12.00;96.50;;;;;;4978151;28;20038;-53
2021/10/05 07:59:16;;;;;;;7.28;4.40;;;12.10;96.80;;;;;;4980567;28;20046;-53
2021/10/05 08:01:48;;;;;;;6.68;4.30;;;12.10;96.70;;;;;;4983354;28;20034;-52
2021/10/05 08:04:13;;;;;;;5.40;4.10;;;12.00;96.90;;;;;;4991908;28;20038;-55
2021/10/05 08:06:39;;;;;;;8.07;4.07;;;12.10;96.80;;;;;;4991475;28;20041;-51
2021/10/05 08:09:04;;;;;;;6.32;3.90;;;12.20;96.80;;;;;;4992462;28;20046;-51
2021/10/05 08:11:30;;;;;;;8.57;4.13;;;12.30;96.50;;;;;;4984699;28;20038;-51
2021/10/05 08:13:55;;;;;;;7.25;4.57;;;12.30;96.20;;;;;;4991668;28;20042;-54
2021/10/05 08:16:30;;;;;;;5.13;3.85;;;12.40;96.20;;;;;;4988133;28;20134;-52
2021/10/05 08:18:56;;;;;;;8.18;4.20;;;12.50;95.60;;;;;;4985501;28;20053;-51
2021/10/05 08:21:21;;;;;;;7.05;4.25;;;12.50;96.00;;;;;;4986827;28;20261;-51
2021/10/05 08:23:47;;;;;;;6.15;4.03;;;12.60;95.70;;;;;;4991502;28;20049;-51
2021/10/05 08:26:12;;;;;;;6.43;4.40;;;12.80;95.50;;;;;;4986990;28;20124;-51
2021/10/05 08:28:38;;;;;;;8.00;4.05;;;12.80;95.20;;;;;;4991410;28;20045;-55
2021/10/05 08:31:04;;;;;;;6.30;4.32;;;12.90;94.60;;;;;;4984392;28;20039;-53
2021/10/05 08:33:29;;;;;;;7.03;4.43;;;13.00;94.80;;;;;;4982038;28;20408;-52
2021/10/05 08:35:55;;;;;;;9.60;4.40;;;13.10;94.40;;;;;;4977925;28;20104;-51
2021/10/05 08:38:20;;;;;;;5.88;4.10;;;13.20;94.60;;;;;;4988640;28;20390;-51
2021/10/05 08:40:46;;;;;;;8.65;4.13;;;13.20;94.50;;;;;;4983417;28;20462;-51
2021/10/05 08:43:12;;;;;;;8.73;4.70;;;13.40;93.90;;;;;;4997871;28;20046;-51
2021/10/05 08:45:38;;;;;;;7.43;4.38;;;13.40;94.00;;;;;;4988578;28;21866;-51
2021/10/05 08:48:03;;;;;;;7.13;4.10;;;13.40;93.90;;;;;;4985813;28;20076;-55
2021/10/05 08:50:29;;;;;;;8.07;4.13;;;13.40;94.20;;;;;;4986984;28;20494;-54
2021/10/05 08:52:55;;;;;;;5.63;4.30;;;13.40;93.60;;;;;;4988070;28;20054;-54
2021/10/05 08:55:20;;;;;;;11.15;4.68;;;13.40;93.60;;;;;;4981946;28;20117;-57
2021/10/05 08:57:48;;;;;;;8.48;4.00;;;13.40;94.00;;;;;;4988339;28;20042;-55
2021/10/05 09:00:14;;;;;;;8.48;4.40;;;13.40;93.60;;;;;;4986780;28;20729;-54
2021/10/05 09:02:52;;;;;;;7.88;4.57;;;13.30;93.80;;;;;;4987305;28;20034;-55
2021/10/05 09:05:19;;;;;;;9.15;4.60;;;13.30;93.60;;;;;;4985135;28;20879;-55
2021/10/05 09:07:47;;;;;;;7.22;4.40;;;13.40;94.00;;;;;;4985600;28;20434;-51
2021/10/05 09:10:16;;;;;;;10.18;4.38;;;13.50;93.60;;;;;;4987873;28;20076;-58
2021/10/05 09:12:42;;;;;;;7.72;4.60;;;13.60;93.40;;;;;;4980185;28;20046;-58
2021/10/05 09:15:12;;;;;;;7.35;4.60;;;13.80;92.60;;;;;;4974670;28;20038;-54
2021/10/05 09:17:38;;;;;;;9.55;4.13;;;13.70;92.40;;;;;;4976071;28;20517;-54
2021/10/05 09:20:22;;;;;;;6.55;3.97;;;13.80;92.10;;;;;;4975228;28;20034;-55
2021/10/05 09:23:01;;;;;;;8.00;4.53;;;13.80;93.00;;;;;;4972425;28;20035;-55
2021/10/05 09:25:29;;;;;;;6.18;3.95;;;13.90;92.90;;;;;;4978759;28;20085;-54
2021/10/05 09:27:55;;;;;;;7.88;4.15;;;14.00;92.50;;;;;;4987428;28;20106;-56
2021/10/05 09:30:20;;;;;;;6.65;4.15;;;14.00;92.40;;;;;;4987463;28;20118;-50
2021/10/05 09:33:01;;;;;;;6.85;4.00;;;13.90;92.40;;;;;;4987498;28;20499;-57
2021/10/05 09:35:27;;;;;;;7.00;3.80;;;14.10;92.00;;;;;;4985487;28;20130;-52
2021/10/05 09:37:54;;;;;;;8.15;4.32;;;14.10;91.80;;;;;;4988841;28;20041;-56
2021/10/05 09:40:19;;;;;;;5.78;3.80;;;14.10;92.20;;;;;;4990471;28;20034;-53
2021/10/05 09:42:47;;;;;;;7.22;4.13;;;14.10;92.00;;;;;;4991091;28;20267;-51
2021/10/05 09:45:18;;;;;;;6.55;4.20;;;14.20;92.30;;;;;;5049380;22;20090;-56
2021/10/05 09:47:49;;;;;;;7.07;3.80;;;14.30;91.50;;;;;;5029699;28;20091;-56
2021/10/05 09:50:28;;;;;;;9.70;3.92;;;14.30;90.90;;;;;;5034921;28;20083;-56
2021/10/05 09:53:11;;;;;;;6.57;3.80;;;14.50;91.40;;;;;;5031752;28;20037;-56
2021/10/05 09:55:42;;;;;;;8.23;3.90;;;14.60;91.20;;;;;;5027246;28;20037;-56
2021/10/05 09:58:09;;;;;;;6.50;3.65;;;14.70;90.70;;;;;;5037361;28;20480;-56
2021/10/05 10:00:38;;;;;;;6.88;3.40;;;14.70;90.70;;;;;;5020665;28;20048;-56
2021/10/05 10:03:08;;;;;;;9.32;3.58;;;14.70;91.30;;;;;;5029001;28;20045;-56
2021/10/05 10:05:37;;;;;;;6.43;3.50;;;14.70;91.10;;;;;;5019000;28;20400;-56
2021/10/05 10:08:04;;;;;;;7.55;3.45;;;14.90;91.40;;;;;;5026851;28;20060;-56
2021/10/05 10:10:35;;;;;;;5.65;2.90;;;15.00;90.70;;;;;;5014993;28;20042;-56
2021/10/05 10:13:07;;;;;;;8.38;3.47;;;15.20;88.70;;;;;;5019478;28;20092;-55
2021/10/05 10:15:36;;;;;;;7.65;3.15;;;15.30;88.20;;;;;;5021093;28;20073;-56
2021/10/05 10:18:07;;;;;;;5.30;3.25;;;15.40;87.40;;;;;;5017141;28;20033;-56
2021/10/05 10:20:34;;;;;;;6.20;3.30;;;15.50;85.80;;;;;;5021665;28;20416;-57
2021/10/05 10:23:00;;;;;;;6.15;3.42;;;15.50;86.60;;;;;;5021763;28;20049;-56
2021/10/05 10:25:28;;;;;;;5.93;3.13;;;15.50;86.20;;;;;;5023866;28;20034;-56
2021/10/05 10:27:58;;;;;;;5.72;2.83;;;15.50;86.90;;;;;;5027500;28;20039;-57
2021/10/05 10:30:26;;;;;;;7.28;3.20;;;15.70;85.40;;;;;;5024280;28;20048;-56
2021/10/05 10:33:02;;;;;;;4.13;2.80;;;15.70;86.00;;;;;;4993771;28;20039;-56
2021/10/05 10:35:28;;;;;;;6.38;3.10;;;15.70;85.30;;;;;;5024872;28;20041;-56
2021/10/05 10:37:54;;;;;;;5.60;2.72;;;15.80;85.80;;;;;;5026551;28;20042;-56
2021/10/05 10:40:33;;;;;;;5.22;2.85;;;15.80;87.50;;;;;;5030672;28;20099;-57
2021/10/05 10:43:16;;;;;;;4.47;2.88;;;16.00;85.90;;;;;;5032007;28;20034;-56
2021/10/05 10:45:57;;;;;;;6.03;2.70;;;16.00;84.60;;;;;;5014563;28;20033;-56
2021/10/05 10:48:31;;;;;;;8.00;3.25;;;16.10;85.20;;;;;;5033087;28;20455;-53
2021/10/05 10:51:01;;;;;;;6.57;3.00;;;16.10;85.30;;;;;;5031235;28;20112;-52
2021/10/05 10:53:36;;;;;;;9.05;2.78;;;16.20;83.90;;;;;;5014094;28;20416;-53
2021/10/05 10:56:01;;;;;;;4.78;2.78;;;16.20;85.00;;;;;;5027350;28;20037;-54
2021/10/05 10:58:42;;;;;;;9.40;2.80;;;16.20;85.70;;;;;;5033177;28;20033;-53
2021/10/05 11:01:08;;;;;;;9.02;2.90;;;16.30;85.40;;;;;;5032399;28;20548;-51
2021/10/05 11:03:35;;;;;;;6.85;2.40;;;16.40;83.50;;;;;;5031613;28;20076;-56
2021/10/05 11:06:01;;;;;;;4.35;2.53;;;16.50;85.00;;;;;;5029790;28;20296;-56
2021/10/05 11:08:30;;;;;;;8.30;2.97;;;16.60;84.30;;;;;;5031892;28;20540;-53
2021/10/05 11:11:02;;;;;;;7.05;2.30;;;16.70;84.00;;;;;;5031418;28;20087;-54
2021/10/05 11:13:30;;;;;;;9.07;2.38;;;16.70;83.20;;;;;;5024530;28;20073;-53
2021/10/05 11:15:56;;;;;;;5.63;2.35;;;16.70;84.20;;;;;;5031500;28;20049;-53
2021/10/05 11:18:24;;;;;;;5.68;2.25;;;16.80;84.00;;;;;;5028004;28;20103;-55
2021/10/05 11:20:52;;;;;;;5.63;2.08;;;16.80;84.20;;;;;;5031881;28;20040;-52
2021/10/05 11:23:20;;;;;;;7.40;2.60;;;16.90;83.70;;;;;;5032978;28;20042;-51
2021/10/05 11:25:50;;;;;;;5.82;2.28;;;17.00;82.70;;;;;;5031352;28;20064;-52
2021/10/05 11:28:20;;;;;;;6.55;2.13;;;17.10;81.70;;;;;;5026702;28;20501;-53
2021/10/05 11:31:06;;;;;;;4.75;1.80;;;17.10;82.10;;;;;;5029659;28;20160;-54
2021/10/05 11:33:34;;;;;;;5.22;1.88;;;17.10;81.30;;;;;;5032134;28;20519;-53
2021/10/05 11:36:09;;;;;;;5.53;1.92;;;17.10;81.30;;;;;;5031415;28;20053;-53
2021/10/05 11:38:48;;;;;;;4.70;2.00;;;17.20;79.50;;;;;;5036216;28;20047;-52
2021/10/05 11:41:14;;;;;;;5.32;1.85;;;17.20;80.40;;;;;;5025079;28;20045;-56
2021/10/05 11:43:46;;;;;;;4.65;2.05;;;17.20;80.60;;;;;;5012963;28;20041;-56
2021/10/05 11:46:16;;;;;;;5.32;1.52;;;17.30;80.30;;;;;;5027194;28;20041;-54
2021/10/05 11:48:48;;;;;;;3.22;1.65;;;17.40;77.80;;;;;;5029349;28;20392;-53
2021/10/05 11:51:15;;;;;;;6.38;1.70;;;17.40;77.90;;;;;;5031683;28;20494;-53
2021/10/05 11:53:42;;;;;;;5.95;1.98;;;17.30;78.80;;;;;;5031482;28;20428;-54
2021/10/05 11:56:15;;;;;;;4.68;1.80;;;17.30;78.90;;;;;;5030511;28;20506;-54
2021/10/05 11:58:48;;;;;;;6.70;1.77;;;17.40;78.60;;;;;;5030551;28;20037;-53
2021/10/05 12:01:28;;;;;;;5.72;1.70;;;17.40;79.00;;;;;;5035043;28;20036;-52
2021/10/05 12:04:13;;;;;;;5.70;1.55;;;17.50;77.60;;;;;;5030153;28;20052;-54
2021/10/05 12:06:41;;;;;;;3.70;1.50;;;17.50;79.00;;;;;;5030999;28;20049;-53
2021/10/05 12:09:14;;;;;;;5.28;1.77;;;17.50;78.60;;;;;;5024572;28;20037;-54
2021/10/05 12:11:46;;;;;;;4.88;1.42;;;17.50;78.30;;;;;;5027331;28;20041;-56
2021/10/05 12:14:18;;;;;;;3.05;1.50;;;17.40;79.30;;;;;;5009665;28;20493;-54
2021/10/05 12:16:57;;;;;;;9.43;2.00;;;17.40;79.80;;;;;;5028551;28;20447;-54
2021/10/05 12:19:33;;;;;;;6.45;1.80;;;17.40;79.50;;;;;;5017350;28;20037;-54
2021/10/05 12:22:00;;;;;;;3.42;1.30;;;17.40;78.70;;;;;;5019650;28;20118;-57
2021/10/05 12:24:49;;;;;;;9.05;1.83;;;17.40;77.40;;;;;;5025316;28;20046;-52
2021/10/05 12:27:37;;;;;;;4.78;1.60;;;17.40;77.70;;;;;;5003750;28;20125;-54
2021/10/05 12:30:12;;;;;;;5.22;1.70;;;17.30;78.40;;;;;;5023972;28;20093;-54
2021/10/05 12:32:43;;;;;;;4.63;1.60;;;17.20;78.80;;;;;;5022719;28;20033;-53
2021/10/05 12:35:32;;;;;;;5.13;1.30;;;17.20;78.90;;;;;;5024146;28;20049;-54
2021/10/05 12:38:02;;;;;;;5.00;1.67;;;17.20;79.00;;;;;;5029543;28;20107;-53
2021/10/05 12:40:50;;;;;;;5.80;1.60;;;17.10;78.40;;;;;;5026506;28;20512;-54
2021/10/05 12:43:18;;;;;;;3.85;1.52;;;17.10;79.10;;;;;;5006668;28;20084;-54
2021/10/05 12:45:55;;;;;;;5.32;1.77;;;17.10;79.20;;;;;;5028562;28;20037;-54